createdAt,value
2023-05-16T00:04:38.958Z,2.10
2023-05-16T00:09:40.636Z,2.00
2023-05-16T00:14:42.774Z,1.93
2023-05-16T00:19:44.716Z,1.67
2023-05-16T00:24:46.344Z,2.00
2023-05-16T00:29:47.865Z,1.80
2023-05-16T00:34:49.602Z,1.50
2023-05-16T00:39:51.870Z,1.43
2023-05-16T00:44:54.102Z,1.80
2023-05-16T00:49:56.522Z,2.03
2023-05-16T00:54:58.290Z,2.63
2023-05-16T00:59:59.881Z,2.37
2023-05-16T01:05:01.735Z,3.40
2023-05-16T01:10:04.052Z,2.60
2023-05-16T01:15:12.745Z,2.80
2023-05-16T01:20:29.265Z,3.50
2023-05-16T01:25:57.288Z,2.83
2023-05-16T01:30:58.821Z,3.10
2023-05-16T01:36:35.902Z,2.83
2023-05-16T01:41:42.280Z,2.53
2023-05-16T01:46:46.551Z,3.43
2023-05-16T01:52:06.153Z,3.30
2023-05-16T01:57:09.075Z,4.03
2023-05-16T02:02:13.532Z,2.67
2023-05-16T02:07:15.204Z,2.30
2023-05-16T02:12:16.834Z,1.80
2023-05-16T02:17:18.421Z,2.23
2023-05-16T02:22:20.030Z,1.90
2023-05-16T02:27:21.630Z,2.00
2023-05-16T02:32:23.327Z,2.43
2023-05-16T02:37:26.973Z,3.23
2023-05-16T02:42:29.304Z,2.40
2023-05-16T02:47:30.958Z,2.33
2023-05-16T02:52:32.598Z,2.43
2023-05-16T02:57:34.335Z,2.20
2023-05-16T03:02:36.115Z,2.57
2023-05-16T03:07:38.501Z,2.23
2023-05-16T03:12:42.199Z,2.30
2023-05-16T03:17:43.885Z,2.10
2023-05-16T03:22:45.627Z,1.70
2023-05-16T03:27:47.294Z,2.10
2023-05-16T03:32:48.961Z,2.30
2023-05-16T03:37:50.697Z,2.03
2023-05-16T03:42:53.442Z,1.70
2023-05-16T03:47:57.164Z,2.10
2023-05-16T03:52:58.932Z,2.50
2023-05-16T03:58:00.508Z,2.00
2023-05-16T04:03:02.205Z,2.13
2023-05-16T04:08:03.939Z,2.53
2023-05-16T04:13:05.567Z,1.90
2023-05-16T04:18:09.397Z,1.90
2023-05-16T04:23:12.027Z,2.00
2023-05-16T04:28:13.612Z,1.90
2023-05-16T04:33:15.227Z,1.87
2023-05-16T04:38:17.007Z,1.90
2023-05-16T04:43:19.675Z,2.10
2023-05-16T04:48:21.461Z,2.13
2023-05-16T04:53:24.044Z,2.97
2023-05-16T04:58:25.739Z,2.10
2023-05-16T05:03:28.004Z,2.40
2023-05-16T05:08:29.629Z,2.00
2023-05-16T05:13:31.166Z,2.30
2023-05-16T05:18:32.954Z,3.00
2023-05-16T05:23:35.036Z,2.50
2023-05-16T05:28:37.963Z,2.30
2023-05-16T05:33:39.551Z,1.93
2023-05-16T05:38:44.021Z,2.00
2023-05-16T05:43:46.207Z,2.17
2023-05-16T05:48:52.061Z,2.03
2023-05-16T05:53:54.505Z,2.40
2023-05-16T05:58:56.761Z,2.07
2023-05-16T06:04:00.101Z,2.23
2023-05-16T06:09:03.397Z,2.33
2023-05-16T06:14:05.287Z,2.10
2023-05-16T06:19:07.263Z,2.03
2023-05-16T06:24:09.571Z,1.93
2023-05-16T06:29:11.874Z,1.77
2023-05-16T06:34:13.455Z,2.00
2023-05-16T06:39:15.326Z,2.20
2023-05-16T06:44:17.371Z,1.80
2023-05-16T06:49:19.016Z,1.80
2023-05-16T06:54:23.110Z,2.30
2023-05-16T06:59:28.038Z,2.00
2023-05-16T07:04:34.393Z,1.53
2023-05-16T07:09:36.037Z,1.50
2023-05-16T07:14:37.733Z,1.83
2023-05-16T07:19:39.332Z,1.20
2023-05-16T07:24:42.268Z,1.20
2023-05-16T07:29:44.481Z,1.10
2023-05-16T07:34:46.286Z,1.07
2023-05-16T07:39:48.098Z,1.00
2023-05-16T07:44:51.118Z,1.20
2023-05-16T07:49:52.788Z,2.00
2023-05-16T07:54:56.833Z,0.90
2023-05-16T07:59:58.491Z,1.17
2023-05-16T08:05:00.193Z,0.90
2023-05-16T08:10:01.932Z,0.80
2023-05-16T08:15:04.316Z,0.90
2023-05-16T08:20:06.663Z,0.90
2023-05-16T08:25:09.062Z,0.87
2023-05-16T08:30:12.067Z,0.70
2023-05-16T08:35:13.911Z,0.70
2023-05-16T08:40:15.875Z,0.80
2023-05-16T08:45:17.641Z,0.70
2023-05-16T08:50:20.313Z,0.63
2023-05-16T08:55:23.166Z,0.67
2023-05-16T09:00:25.443Z,0.73
2023-05-16T09:05:29.892Z,0.70
2023-05-16T09:10:31.744Z,0.77
2023-05-16T09:15:34.546Z,0.70
2023-05-16T09:20:37.478Z,1.10
2023-05-16T09:25:47.672Z,0.60
2023-05-16T09:30:59.254Z,0.60
2023-05-16T09:36:01.381Z,1.07
2023-05-16T09:41:03.067Z,0.80
2023-05-16T09:46:05.931Z,0.90
2023-05-16T09:51:08.086Z,0.50
2023-05-16T09:56:14.404Z,0.57
2023-05-16T10:01:16.330Z,0.60
2023-05-16T10:06:18.587Z,1.00
2023-05-16T10:11:20.401Z,0.80
2023-05-16T10:16:23.844Z,0.47
2023-05-16T10:21:29.713Z,0.60
2023-05-16T10:26:32.794Z,0.70
2023-05-16T10:31:35.114Z,0.83
2023-05-16T10:36:37.075Z,0.80
2023-05-16T10:41:39.045Z,0.87
2023-05-16T10:46:40.828Z,0.87
2023-05-16T10:51:42.529Z,0.70
2023-05-16T10:56:44.321Z,0.70
2023-05-16T11:01:52.727Z,0.83
2023-05-16T11:07:01.414Z,0.67
2023-05-16T11:12:03.627Z,0.90
2023-05-16T11:17:16.296Z,0.50
2023-05-16T11:22:21.859Z,0.53
2023-05-16T11:27:27.107Z,0.60
2023-05-16T11:32:28.803Z,0.50
2023-05-16T11:37:32.900Z,0.50
2023-05-16T11:42:36.421Z,0.50
2023-05-16T11:47:44.622Z,0.70
2023-05-16T11:52:49.024Z,0.73
2023-05-16T11:57:54.511Z,0.70
2023-05-16T12:03:04.353Z,0.50
2023-05-16T12:08:06.691Z,0.60
2023-05-16T12:13:08.393Z,0.80
2023-05-16T12:18:10.693Z,0.50
2023-05-16T12:23:13.736Z,0.57
2023-05-16T12:28:17.255Z,0.90
2023-05-16T12:33:19.175Z,1.23
2023-05-16T12:38:21.056Z,0.97
2023-05-16T12:43:23.252Z,1.00
2023-05-16T12:48:34.390Z,0.83
2023-05-16T12:53:42.806Z,0.90
2023-05-16T12:58:44.595Z,1.63
2023-05-16T13:03:46.780Z,1.00
2023-05-16T13:08:48.509Z,0.77
2023-05-16T13:13:50.249Z,1.10
2023-05-16T13:18:52.374Z,1.23
2023-05-16T13:23:54.216Z,1.00
2023-05-16T13:28:56.411Z,0.60
2023-05-16T13:33:58.910Z,0.73
2023-05-16T13:39:00.638Z,0.87
2023-05-16T13:44:02.396Z,0.67
2023-05-16T13:49:07.078Z,1.20
2023-05-16T13:54:08.782Z,1.10
2023-05-16T13:59:15.244Z,0.90
2023-05-16T14:04:20.231Z,0.73
2023-05-16T14:09:22.305Z,0.77
2023-05-16T14:14:23.982Z,0.60
2023-05-16T14:19:26.120Z,0.50
2023-05-16T14:24:28.391Z,0.57
2023-05-16T14:29:30.007Z,0.90
2023-05-16T14:34:31.855Z,0.87
2023-05-16T14:39:33.745Z,0.60
2023-05-16T14:44:35.399Z,0.63
2023-05-16T14:49:37.342Z,0.57
2023-05-16T14:54:38.925Z,0.50
2023-05-16T14:59:41.225Z,0.60
2023-05-16T15:04:42.993Z,1.00
2023-05-16T15:09:44.623Z,0.70
2023-05-16T15:14:46.295Z,1.17
2023-05-16T15:19:48.994Z,0.50
2023-05-16T15:24:50.906Z,0.50
2023-05-16T15:29:52.680Z,1.03
2023-05-16T15:34:55.461Z,0.40
2023-05-16T15:39:57.146Z,0.70
2023-05-16T15:44:58.831Z,1.10
2023-05-16T15:50:00.632Z,0.53
2023-05-16T15:55:07.044Z,0.80
2023-05-16T16:00:09.131Z,0.60
2023-05-16T16:05:13.291Z,0.70
2023-05-16T16:10:15.188Z,0.70
2023-05-16T16:15:16.882Z,0.70
2023-05-16T16:20:21.791Z,0.43
2023-05-16T16:25:24.237Z,0.80
2023-05-16T16:30:29.225Z,0.57
2023-05-16T16:35:31.230Z,0.80
2023-05-16T16:40:32.901Z,1.10
2023-05-16T16:45:35.041Z,1.17
2023-05-16T16:50:36.706Z,1.00
2023-05-16T16:55:40.720Z,1.00
2023-05-16T17:00:43.012Z,1.10
2023-05-16T17:05:45.145Z,0.70
2023-05-16T17:10:47.222Z,0.83
2023-05-16T17:15:48.923Z,1.07
2023-05-16T17:20:50.595Z,1.27
2023-05-16T17:25:52.285Z,0.70
2023-05-16T17:30:54.510Z,0.90
2023-05-16T17:35:56.334Z,0.80
2023-05-16T17:40:58.000Z,0.77
2023-05-16T17:45:59.869Z,0.97
2023-05-16T17:51:02.262Z,1.10
2023-05-16T17:56:08.088Z,1.20
2023-05-16T18:01:10.230Z,1.10
2023-05-16T18:06:12.342Z,1.37
2023-05-16T18:11:14.865Z,1.00
2023-05-16T18:16:16.696Z,0.90
2023-05-16T18:21:18.467Z,1.10
2023-05-16T18:26:20.478Z,1.23
2023-05-16T18:31:22.384Z,1.00
2023-05-16T18:36:24.113Z,0.83
2023-05-16T18:41:27.148Z,0.90
2023-05-16T18:46:28.829Z,0.90
2023-05-16T18:51:30.936Z,0.90
2023-05-16T18:56:33.061Z,1.03
2023-05-16T19:01:34.771Z,1.43
2023-05-16T19:06:37.691Z,1.63
2023-05-16T19:11:39.686Z,1.00
2023-05-16T19:16:41.586Z,1.10
2023-05-16T19:21:43.186Z,1.27
2023-05-16T19:26:45.063Z,0.97
2023-05-16T19:31:46.775Z,1.10
2023-05-16T19:36:48.524Z,1.20
2023-05-16T19:41:52.125Z,1.40
2023-05-16T19:46:54.473Z,1.07
2023-05-16T19:51:56.349Z,1.10
2023-05-16T19:56:58.184Z,1.33
2023-05-16T20:02:00.657Z,1.80
2023-05-16T20:07:02.482Z,1.07
2023-05-16T20:12:04.307Z,1.07
2023-05-16T20:17:06.540Z,1.33
2023-05-16T20:22:08.200Z,1.00
2023-05-16T20:27:10.020Z,1.17
2023-05-16T20:32:11.672Z,1.90
2023-05-16T20:37:13.995Z,1.27
2023-05-16T20:42:15.689Z,1.43
2023-05-16T20:47:17.694Z,1.23
2023-05-16T20:52:21.896Z,1.10
2023-05-16T20:57:23.717Z,0.97
2023-05-16T21:02:25.745Z,1.40
2023-05-16T21:07:27.439Z,1.10
2023-05-16T21:12:29.029Z,1.17
2023-05-16T21:17:30.854Z,1.20
2023-05-16T21:22:32.604Z,0.80
2023-05-16T21:27:34.278Z,1.20
2023-05-16T21:32:35.982Z,1.03
2023-05-16T21:37:37.676Z,1.33
2023-05-16T21:42:39.357Z,1.10
2023-05-16T21:47:41.224Z,1.00
2023-05-16T21:52:43.720Z,0.87
2023-05-16T21:57:45.557Z,1.00
2023-05-16T22:02:48.745Z,1.03
2023-05-16T22:07:50.712Z,1.00
2023-05-16T22:12:52.534Z,0.93
2023-05-16T22:17:57.230Z,1.20
2023-05-16T22:22:59.414Z,1.20
2023-05-16T22:28:01.057Z,1.30
2023-05-16T22:33:03.758Z,1.40
2023-05-16T22:38:05.469Z,1.50
2023-05-16T22:43:07.106Z,1.10
2023-05-16T22:48:09.039Z,1.27
2023-05-16T22:53:11.080Z,0.90
2023-05-16T22:58:12.738Z,1.10
2023-05-16T23:03:14.411Z,1.27
2023-05-16T23:08:16.133Z,1.07
2023-05-16T23:13:17.808Z,1.50
2023-05-16T23:18:19.634Z,1.20
2023-05-16T23:23:21.377Z,1.47
2023-05-16T23:28:26.348Z,1.30
2023-05-16T23:33:28.295Z,1.77
2023-05-16T23:38:29.879Z,1.30
2023-05-16T23:43:31.537Z,1.60
2023-05-16T23:48:33.397Z,1.33
2023-05-16T23:53:35.555Z,1.20
2023-05-16T23:58:37.457Z,1.30
